Ride Results

The Rock (11-05-2008)
Ride distance: 80.0 km

Outcomes - The Rock (11-05-2008)
Division No. of Entries Retired / DNE Completed Withdrawn Ineligible V/O Percentage Completed
HW 12 - 8 3 - 1 66.67%
MW 29 - 23 1 - 5 79.31%
LW 8 - 6 - - 2 75.00%
JN 4 - 4 - - - 100.00%
Totals 53 - 41 4 - 8 77.36%
Results - The Rock (11-05-2008)
No. Rider Horse Place Time Leg Speeds Total
Km/Hr
H/R bpm
Heavyweight
57 Fiona Finigan Aloha St Nicholas 1 4:32:00 16.7, 18.6 17.65 33, 46, 49 (Avg:47)
37 Peter Norman Bellarine Bozo 1 4:32:00 16.9, 18.4 17.65 37, 44, 43 (Avg:43)
39 Stuart Lymbery Garonne Park Walker 3 5:28:00 15.0, 14.2 14.63 34, 49, 52 (Avg:50)
58 Lorien Hasko-Stewart Blake's Heaven Bombora 4 5:33:00 15.2, 13.6 14.41 34, 44, 59 (Avg:51)
40 Julie Dixon Karabil Abbra 5 6:10:00 13.1, 12.8 12.97 34, 40, 46 (Avg:43)
43 Ray Rhodes Karrana King 6 6:21:00 13.3, 11.9 12.60 36, 39, 44 (Avg:41)
38 Laurie Stevens Salz Bossy Boots 7 7:03:00 12.4, 10.4 11.35 42, 40, 46 (Avg:43)
44 Julia Delaney Fayida 8 7:19:00 12.3, 9.7 10.93 34, 40, 47 (Avg:43)
36 Steve Brisbane Halimas Ibn Rusima Lame L2 0:00:00 15.5, 22.8 - 36, 40, 69 (Avg:54)
42 Ian Brown Coolaroo Cohnah Withdrawn L1 0:00:00 - - 37, 34 (Avg:34)
41 Marty Myhill Newbury Zaque Withdrawn L1 0:00:00 - - 35, 39 (Avg:39)
59 Keith Preston Black Springs Aladdin Withdrawn L1 0:00:00 - - 36, 54 (Avg:54)
Middleweight
10 Mette Sutton Tuldar The Magician 1 3:57:00 19.6, 20.8 20.25 32, 39, 49 (Avg:44)
8 Brett Willis One Eye Crystal Dreams 1 3:57:00 19.6, 20.8 20.25 39, 40, 42 (Avg:41)
5 Belinda Henderson Jon De Le Jalise 3 4:19:00 17.9, 19.1 18.53 32, 36, 40 (Avg:38)
7 Jamie Mollema Billywillinga Rocky 4 4:32:00 17.7, 17.5 17.65 36, 37, 46 (Avg:41)
1 Colleen Clancy Kadimah Park Hamelech 5 4:34:00 16.7, 18.3 17.52 36, 42, 59 (Avg:50)
17 Corey Nix Castlebar Dell 6 4:41:00 16.1, 18.1 17.08 31, 42, 46 (Avg:44)
20 Wendy Riha Castlebar Moonlight 6 4:41:00 16.1, 18.1 17.08 28, 32, 37 (Avg:34)
21 Kristie Taprell Castlebar Doolittle 6 4:41:00 16.1, 18.1 17.08 26, 37, 46 (Avg:41)
14 Tony Norman Bara Park Jim 9 4:42:00 16.1, 18.0 17.02 30, 49, 50 (Avg:49)
27 Brodie Freeman Tarabic Carl 10 5:15:00 17.3, 13.5 15.24 39, 44, 43 (Avg:43)
28 Blake Freeman Cedar Ridge Magnetic 11 6:01:00 13.4, 13.1 13.30 36, 42, 40 (Avg:41)
6 Lindsay Hine Nicari Apollo 11 6:01:00 13.3, 13.2 13.30 48, 53, 52 (Avg:52)
29 Jason Kirk Cedar Ridge Desert Express 11 6:01:00 13.5, 13.0 13.30 40, 43, 51 (Avg:47)
19 Linda Tanian Levi Ledgend 14 6:02:00 13.4, 13.1 13.26 36, 44, 57 (Avg:50)
16 Paul Keyes Kathmar Park Ambush 15 6:09:00 13.0, 12.9 13.01 40, 42, 51 (Avg:46)
15 Lisa Keyes Valinor Park Moonshadow 15 6:09:00 13.0, 12.9 13.01 34, 42, 47 (Avg:44)
13 Karen Rhodes Shadow 17 6:21:00 13.3, 11.9 12.60 34, 39, 42 (Avg:40)
12 Chris Cheney Coolaroo Donna-Lea 18 6:23:00 12.3, 12.6 12.53 35, 34, 53 (Avg:43)
26 Tracy Haack Jamie 19 6:24:00 12.3, 12.6 12.50 34, 42, 45 (Avg:43)
2 John Symons Forest Dale Xasperation 20 6:53:00 12.3, 10.9 11.62 37, 47, 58 (Avg:52)
24 Sharee Cassell Inshallah Nefertari 21 7:08:00 11.8, 10.6 11.21 37, 40, 55 (Avg:47)
23 Fiona Coddington Erin Park Troy 21 7:08:00 11.8, 10.6 11.21 36, 42, 51 (Avg:46)
3 Jody O'Leary-Gowen Shahira Low Octane 23 7:25:00 12.0, 9.7 10.79 34, 47, 51 (Avg:49)
11 Michael Leary Yukon Park Legend Heart Rate L2 0:00:00 12.8, 12.8 - 37, 53, 70 (Avg:61)
22 Haydn Leary Moonlite Snowman Heart Rate L2 0:00:00 13.1, 11.0 - 32, 48, 65 (Avg:56)
9 Alarna Bartlett Ainslie Zachariah Lame L1 0:00:00 13.3 - 34, 36 (Avg:36)
18 Kim Bolas Coronet Park Caesar Lame L1 0:00:00 13.1 - 32, 45 (Avg:45)
4 Sue MacKenzie Little Bobby Dylan Withdrawn L1 0:00:00 - - 36, 37 (Avg:37)
25 Meg Wade Castlebar Delaware Lame L1 0:00:00 17.3 - 29, 39 (Avg:39)
Lightweight
51 Deanna Smith Patria Azra 1 4:34:00 16.6, 18.4 17.52 33, 37, 45 (Avg:41)
47 Robin Gossip A'Landell Sarlee 2 5:04:00 15.9, 15.5 15.79 28, 41, 39 (Avg:40)
50 Zoe Gardner Magic Glenn Shool 3 6:03:00 13.4, 13.0 13.22 43, 40, 44 (Avg:42)
45 Shelly Ison Aloha Fabian 4 6:09:00 13.1, 12.9 13.01 33, 37, 41 (Avg:39)
46 Sally Stevens Kirrong Khalaasy 5 7:03:00 12.4, 10.4 11.35 32, 36, 45 (Avg:40)
48 Ali Godfrey Chips 6 7:19:00 11.2, 10.6 10.93 33, 42, 53 (Avg:47)
52 Telea Leary Conroy Lame L1 0:00:00 15.4 - 33, 39 (Avg:39)
49 Danielle Beard Botusa Park Savannah Lame P/R 0:00:00 - - 35
Junior
60 Cody Lymbery Garonne Park Tiara 1 5:28:00 15.0, 14.2 14.63 26, 36, 37 (Avg:36)
62 Talea Hasko-Stewart Blake's Heaven Ventura 2 5:33:00 15.2, 13.6 14.41 34, 40, 46 (Avg:43)
61 Mahteea Leary Jirrima Smooth Sailor 3 6:00:00 12.9, 13.7 13.33 38, 36, 42 (Avg:39)
63 Jeremy Banwell Lac-La-Biche Talique 4 6:35:00 13.1, 11.3 12.15 30, 42, 47 (Avg:44)